Crues Valable du: 23-01-2018 16:00 Au: 24-01-2018 16:00 Avertissement pour: Crues Niveau: Jaune info button
Nontron en périgord vert

Webcam Lo Malatio more information Webcam Lo Malatio


Thunder radar more information blitzortung!


Rain radar  rain snow radar



Rapports METAR proximité

   
EBAW - Antwerp
Mise à jour: 24-01-2018 02:20
Nuageux  
Nuageux  
   Vent: SSO 18.5 km/h
Vent: SSO 18.5 km/h
Température: 12°C
Point de rosée: 10°C
Humidité: 88%
Baromètre: 1018 hPa
Nuageux: Nuageux
visibilité: More than 10 km
Détails des nuages: Nuageux 243.8 m,
Nuageux 304.8 m
EBAW 240120Z AUTO 21010KT 9999 // BKN008/// OVC010/// 12/10 Q1018
EBLG - Liège
Mise à jour: 24-01-2018 02:20
Nuageux  
Nuageux  
   Vent: SSO 25.9 km/h
Vent: SSO 25.9 km/h
Température: 10°C
éolien: 7°C
Point de rosée: 9°C
Humidité: 94%
Baromètre: 1020 hPa
Nuageux: Nuageux
visibilité: More than 10 km
Détails des nuages: Peu de nuages 213.4 m,
Nuageux 304.8 m
EBLG 240120Z 21014KT 9999 FEW007 BKN010 10/09 Q1020 TEMPO 4000 -DZ BKN006
EBCV - Mons/Bergen
Mise à jour: 24-01-2018 01:55
Nuageux  
Nuageux  
   Vent: SSO 27.8 km/h
Vent: SSO 27.8 km/h
Température: 11°C
Point de rosée: 11°C
Humidité: 100%
Baromètre: 1019 hPa
Nuageux: Nuageux
visibilité: More than 10 km
Détails des nuages: Nuageux 304.8 m
EBCV 240055Z AUTO 21015KT 9999 BKN010/// 11/11 Q1019 GRN
EHBK - Maastricht
Mise à jour: 24-01-2018 02:25
Nuageux  
Nuageux  
   Vent: SSO 25.9 km/h
Vent: SSO 25.9 km/h
Température: 11°C
Point de rosée: 9°C
Humidité: 88%
Baromètre: 1019 hPa
Nuageux: Nuageux
visibilité: More than 10 km
Détails des nuages: Peu de nuages 335.3 m,
Nuageux 457.2 m,
Nuageux 548.6 m
EHBK 240125Z AUTO 21014KT 9999 FEW011 BKN015 OVC018 11/09 Q1019
ELLX - Luxemburg
Mise à jour: 24-01-2018 02:20
Bruine, Nuageux  
Bruine, Nuageux  
   Vent: Sud 14.8 km/h
Vent: Sud 14.8 km/h
Température: 8°C
éolien: 6°C
Point de rosée: 7°C
Humidité: 93%
Baromètre: 1022 hPa
Nuageux: Nuageux
visibilité: 1 km
Détails des nuages: Nuageux
ELLX 240120Z AUTO 19008KT 1300 R24/P2000D DZ OVC000/// 08/07 Q1022 NOSIG
EBOS - Oostende
Mise à jour: 24-01-2018 02:20
Faible bruine, Nuageux  
Faible bruine, Nuageux  
   Vent: SSO 20.4 km/h
Vent: SSO 20.4 km/h
Température: 11°C
Point de rosée: 10°C
Humidité: 94%
Baromètre: 1017 hPa
Nuageux: Nuageux
visibilité: 6 km
Détails des nuages: Partiellement nuageux 91.4 m,
Nuageux 182.9 m
EBOS 240120Z 21011KT 6000 -DZ SCT003 BKN006 11/10 Q1017 TEMPO SCT006 BKN012

Script développé par  Saratoga-weather.org Adapté pour le modèle par  Weerstation Leuven

Vous trouverez notre info météo Également à:

WeatherCloud

Weather Underground

AWEKAS

Citizen Weather Observer Program (CWOP)

Équipement que nous utilisons:

Station de Météo
Davis VP2

Programme Météo
WeatherCat

Ordinateur Météo
Mac mini

Provider
o2switch

Davis VP2

WeatherCat

Mac mini

o2switch


Profile for microquant